createdAt,value
2019-04-22T00:00:12.725Z,1.82
2019-04-22T00:02:52.548Z,1.67
2019-04-22T00:05:41.490Z,1.80
2019-04-22T00:08:21.005Z,1.92
2019-04-22T00:10:48.699Z,1.50
2019-04-22T00:13:25.883Z,1.75
2019-04-22T00:15:54.135Z,2.30
2019-04-22T00:18:40.467Z,1.50
2019-04-22T00:20:57.970Z,1.57
2019-04-22T00:23:23.455Z,1.70
2019-04-22T00:26:05.227Z,1.98
2019-04-22T00:28:30.565Z,1.67
2019-04-22T00:31:16.966Z,2.00
2019-04-22T00:33:45.545Z,1.77
2019-04-22T00:36:24.124Z,2.00
2019-04-22T00:38:54.496Z,2.10
2019-04-22T00:41:29.705Z,2.55
2019-04-22T00:46:31.590Z,2.35
2019-04-22T00:49:48.631Z,1.80
2019-04-22T00:51:40.125Z,2.22
2019-04-22T00:54:03.391Z,2.90
2019-04-22T00:56:35.666Z,2.87
2019-04-22T00:59:06.772Z,2.52
2019-04-22T01:01:41.050Z,2.40
2019-04-22T01:04:14.233Z,2.65
2019-04-22T01:06:41.645Z,3.17
2019-04-22T01:09:10.932Z,2.75
2019-04-22T01:11:50.541Z,2.62
2019-04-22T01:14:20.331Z,2.67
2019-04-22T01:16:50.912Z,3.17
2019-04-22T01:19:23.550Z,2.62
2019-04-22T01:21:56.376Z,2.70
2019-04-22T01:24:22.161Z,2.45
2019-04-22T01:26:49.262Z,3.37
2019-04-22T01:29:14.682Z,2.20
2019-04-22T01:31:39.917Z,2.80
2019-04-22T01:34:23.314Z,2.70
2019-04-22T01:36:57.805Z,2.52
2019-04-22T01:39:37.813Z,2.92
2019-04-22T01:42:05.678Z,3.12
2019-04-22T01:44:42.207Z,4.37
2019-04-22T01:47:23.225Z,2.70
2019-04-22T01:49:46.381Z,3.63
2019-04-22T01:52:18.644Z,5.17
2019-04-22T01:55:02.177Z,3.00
2019-04-22T01:57:20.769Z,2.58
2019-04-22T01:59:45.902Z,4.15
2019-04-22T02:02:25.532Z,2.50
2019-04-22T02:04:59.938Z,2.80
2019-04-22T02:07:32.382Z,2.20
2019-04-22T02:10:26.865Z,3.45
2019-04-22T02:12:32.068Z,2.87
2019-04-22T02:15:05.667Z,3.80
2019-04-22T02:17:42.509Z,3.22
2019-04-22T02:23:40.904Z,2.80
2019-04-22T02:25:56.455Z,3.35
2019-04-22T02:28:32.560Z,2.77
2019-04-22T02:33:58.539Z,3.33
2019-04-22T02:36:19.135Z,2.50
2019-04-22T02:48:53.425Z,3.22
2019-04-22T02:54:17.248Z,2.85
2019-04-22T02:56:27.311Z,3.50
2019-04-22T03:06:32.839Z,3.47
2019-04-22T03:08:53.811Z,3.80
2019-04-22T03:11:31.120Z,2.98
2019-04-22T03:16:31.865Z,2.52
2019-04-22T03:21:33.882Z,2.60
2019-04-22T03:24:18.025Z,3.35
2019-04-22T03:29:04.708Z,2.92
2019-04-22T03:42:17.436Z,5.35
2019-04-22T03:44:54.323Z,3.75
2019-04-22T03:47:24.014Z,2.75
2019-04-22T03:49:45.354Z,4.08
2019-04-22T03:52:18.813Z,3.08
2019-04-22T03:54:46.285Z,2.80
2019-04-22T03:59:48.087Z,4.10
2019-04-22T04:02:29.345Z,2.40
2019-04-22T04:04:49.555Z,4.42
2019-04-22T04:07:30.813Z,2.65
2019-04-22T04:10:02.224Z,2.20
2019-04-22T04:12:28.291Z,2.92
2019-04-22T04:15:11.674Z,2.60
2019-04-22T04:17:29.766Z,2.60
2019-04-22T04:20:23.287Z,4.20
2019-04-22T04:25:19.232Z,3.35
2019-04-22T04:27:54.090Z,2.80
2019-04-22T04:30:14.876Z,3.27
2019-04-22T04:35:32.274Z,2.65
2019-04-22T04:42:46.282Z,2.30
2019-04-22T04:55:30.479Z,2.58
2019-04-22T04:58:03.480Z,2.05
2019-04-22T05:13:07.121Z,4.87
2019-04-22T05:20:53.358Z,3.85
2019-04-22T05:23:14.221Z,2.67
2019-04-22T05:25:33.317Z,3.33
2019-04-22T05:28:11.744Z,3.72
2019-04-22T05:30:40.785Z,2.92
2019-04-22T05:33:19.118Z,2.70
2019-04-22T05:35:46.097Z,2.70
2019-04-22T05:40:54.201Z,2.02
2019-04-22T05:43:21.303Z,2.33
2019-04-22T05:45:50.961Z,2.05
2019-04-22T05:48:30.575Z,2.90
2019-04-22T05:51:01.120Z,2.70
2019-04-22T05:53:41.878Z,2.33
2019-04-22T05:56:15.417Z,2.95
2019-04-22T05:58:47.905Z,2.47
2019-04-22T06:03:52.876Z,2.67
2019-04-22T06:08:53.742Z,2.80
2019-04-22T06:11:25.777Z,2.85
2019-04-22T06:13:51.983Z,2.87
2019-04-22T06:19:03.141Z,3.33
2019-04-22T06:24:10.590Z,2.25
2019-04-22T06:26:45.843Z,2.90
2019-04-22T06:32:05.535Z,2.85
2019-04-22T06:34:20.847Z,2.95
2019-04-22T06:39:29.477Z,3.10
2019-04-22T06:42:01.018Z,3.05
2019-04-22T06:44:29.908Z,4.45
2019-04-22T06:47:05.257Z,4.50
2019-04-22T06:49:35.629Z,3.42
2019-04-22T06:52:17.916Z,3.75
2019-04-22T06:54:44.535Z,4.05
2019-04-22T06:57:05.867Z,2.30
2019-04-22T06:59:36.282Z,3.47
2019-04-22T07:02:20.101Z,2.77
2019-04-22T07:04:45.014Z,2.55
2019-04-22T07:07:22.121Z,2.98
2019-04-22T07:09:57.443Z,3.05
2019-04-22T07:12:24.301Z,2.35
2019-04-22T07:14:53.506Z,2.15
2019-04-22T07:17:30.985Z,3.70
2019-04-22T07:20:02.050Z,2.37
2019-04-22T07:22:28.188Z,2.83
2019-04-22T07:24:59.061Z,2.75
2019-04-22T07:27:27.825Z,2.83
2019-04-22T07:30:09.317Z,3.33
2019-04-22T07:35:08.474Z,1.92
2019-04-22T07:37:45.270Z,2.40
2019-04-22T07:40:13.796Z,2.25
2019-04-22T07:42:45.785Z,2.20
2019-04-22T07:45:22.626Z,2.00
2019-04-22T07:47:44.367Z,2.33
2019-04-22T07:50:26.745Z,2.15
2019-04-22T07:52:47.005Z,2.42
2019-04-22T07:55:24.411Z,2.45
2019-04-22T07:57:51.881Z,2.12
2019-04-22T08:00:22.722Z,2.12
2019-04-22T08:03:01.299Z,1.90
2019-04-22T08:05:37.936Z,1.77
2019-04-22T08:08:11.515Z,1.90
2019-04-22T08:10:40.099Z,2.22
2019-04-22T08:13:04.921Z,2.55
2019-04-22T08:15:40.110Z,3.17
2019-04-22T08:20:41.428Z,2.77
2019-04-22T08:25:42.900Z,1.90
2019-04-22T08:28:19.070Z,2.52
2019-04-22T08:33:21.568Z,2.55
2019-04-22T08:38:37.267Z,2.55
2019-04-22T08:41:24.841Z,2.20
2019-04-22T08:43:47.687Z,2.55
2019-04-22T08:46:24.115Z,1.45
2019-04-22T08:48:52.906Z,1.62
2019-04-22T08:56:38.931Z,2.50
2019-04-22T08:59:06.556Z,1.72
2019-04-22T09:01:30.125Z,2.62
2019-04-22T09:09:06.205Z,2.30
2019-04-22T09:14:13.931Z,2.75
2019-04-22T09:16:46.346Z,1.50
2019-04-22T09:19:22.529Z,2.27
2019-04-22T09:21:45.571Z,2.60
2019-04-22T09:29:22.464Z,2.80
2019-04-22T09:31:53.974Z,2.92
2019-04-22T09:34:22.510Z,1.90
2019-04-22T09:36:59.440Z,2.10
2019-04-22T09:39:26.594Z,1.80
2019-04-22T09:41:57.229Z,1.70
2019-04-22T09:44:30.865Z,1.52
2019-04-22T09:47:00.033Z,2.25
2019-04-22T09:49:36.845Z,2.15
2019-04-22T09:52:08.462Z,2.10
2019-04-22T09:57:01.885Z,2.20
2019-04-22T09:59:48.481Z,2.25
2019-04-22T10:04:40.238Z,1.90
2019-04-22T10:07:15.296Z,2.27
2019-04-22T10:09:59.489Z,1.87
2019-04-22T10:12:19.255Z,3.10
2019-04-22T10:14:49.193Z,3.17
2019-04-22T10:17:17.770Z,2.58
2019-04-22T10:20:05.583Z,3.58
2019-04-22T10:22:27.737Z,3.60
2019-04-22T10:24:57.874Z,3.27
2019-04-22T10:27:26.175Z,3.27
2019-04-22T10:30:00.181Z,3.60
2019-04-22T10:32:33.434Z,2.25
2019-04-22T10:35:02.686Z,2.00
2019-04-22T10:37:26.233Z,2.80
2019-04-22T10:40:01.894Z,2.45
2019-04-22T10:42:31.288Z,2.70
2019-04-22T10:45:01.351Z,3.50
2019-04-22T10:47:32.036Z,1.70
2019-04-22T10:50:02.701Z,2.40
2019-04-22T10:52:32.807Z,2.15
2019-04-22T10:55:03.495Z,2.65
2019-04-22T10:57:33.896Z,2.15
2019-04-22T11:00:07.460Z,2.27
2019-04-22T11:02:37.821Z,2.30
2019-04-22T11:05:10.320Z,2.00
2019-04-22T11:07:47.589Z,2.20
2019-04-22T11:10:27.336Z,1.60
2019-04-22T11:12:45.201Z,2.52
2019-04-22T11:15:15.958Z,1.90
2019-04-22T11:17:47.399Z,2.05
2019-04-22T11:20:17.745Z,2.30
2019-04-22T11:22:48.964Z,2.20
2019-04-22T11:25:19.093Z,2.27
2019-04-22T11:27:49.424Z,2.87
2019-04-22T11:30:22.750Z,3.27
2019-04-22T11:32:51.437Z,2.00
2019-04-22T11:35:21.832Z,2.50
2019-04-22T11:37:54.929Z,2.58
2019-04-22T11:40:34.853Z,1.60
2019-04-22T11:42:59.663Z,2.60
2019-04-22T11:45:29.431Z,2.42
2019-04-22T11:47:59.670Z,1.70
2019-04-22T11:50:30.917Z,2.67
2019-04-22T11:53:02.672Z,3.02
2019-04-22T11:55:32.949Z,1.82
2019-04-22T11:58:03.471Z,2.35
2019-04-22T12:00:35.102Z,2.45
2019-04-22T12:03:07.247Z,2.22
2019-04-22T12:05:39.609Z,2.02
2019-04-22T12:08:11.277Z,2.20
2019-04-22T12:10:49.467Z,1.60
2019-04-22T12:13:13.524Z,2.17
2019-04-22T12:15:44.763Z,2.20
2019-04-22T12:18:15.285Z,2.27
2019-04-22T12:20:45.651Z,1.85
2019-04-22T12:23:17.010Z,1.80
2019-04-22T12:25:54.253Z,2.15
2019-04-22T12:28:19.394Z,1.82
2019-04-22T12:30:51.164Z,1.72
2019-04-22T12:33:23.517Z,2.45
2019-04-22T12:35:54.754Z,2.58
2019-04-22T12:38:27.296Z,1.62
2019-04-22T12:41:01.312Z,1.57
2019-04-22T12:43:29.914Z,1.90
2019-04-22T12:46:00.761Z,1.75
2019-04-22T12:48:31.035Z,1.57
2019-04-22T12:51:01.122Z,2.25
2019-04-22T12:53:31.970Z,1.82
2019-04-22T12:56:02.967Z,1.22
2019-04-22T12:58:33.873Z,1.72
2019-04-22T13:01:04.523Z,1.82
2019-04-22T13:03:40.315Z,2.22
2019-04-22T13:06:10.127Z,1.90
2019-04-22T13:08:41.392Z,1.65
2019-04-22T13:11:15.655Z,2.45
2019-04-22T13:13:43.041Z,1.57
2019-04-22T13:16:13.469Z,1.32
2019-04-22T13:18:53.101Z,2.05
2019-04-22T13:21:15.797Z,2.22
2019-04-22T13:23:46.638Z,1.52
2019-04-22T13:26:17.050Z,1.30
2019-04-22T13:28:47.377Z,2.10
2019-04-22T13:31:20.660Z,1.62
2019-04-22T13:33:52.770Z,2.00
2019-04-22T13:36:22.703Z,1.07
2019-04-22T13:38:53.128Z,1.27
2019-04-22T13:41:33.024Z,1.45
2019-04-22T13:43:56.072Z,2.17
2019-04-22T13:46:27.361Z,1.70
2019-04-22T13:49:27.037Z,2.05
2019-04-22T13:56:55.122Z,1.55
2019-04-22T13:59:13.653Z,0.85
2019-04-22T14:01:46.454Z,1.75
2019-04-22T14:04:22.634Z,1.65
2019-04-22T14:06:52.698Z,1.77
2019-04-22T14:09:24.449Z,1.50
2019-04-22T14:12:00.205Z,1.62
2019-04-22T14:14:26.083Z,1.30
2019-04-22T14:16:55.947Z,0.72
2019-04-22T14:19:26.111Z,0.80
2019-04-22T14:21:57.725Z,1.10
2019-04-22T14:24:28.078Z,1.10
2019-04-22T14:27:17.472Z,1.65
2019-04-22T14:29:31.495Z,1.50
2019-04-22T14:32:10.615Z,1.07
2019-04-22T14:34:34.194Z,1.10
2019-04-22T14:37:05.483Z,1.40
2019-04-22T14:39:35.916Z,1.80
2019-04-22T14:42:21.748Z,0.95
2019-04-22T14:47:31.462Z,1.75
2019-04-22T14:50:06.301Z,1.30
2019-04-22T14:52:33.501Z,1.45
2019-04-22T14:54:54.259Z,1.10
2019-04-22T14:57:16.921Z,1.45
2019-04-22T14:59:48.283Z,1.15
2019-04-22T15:02:19.559Z,0.78
2019-04-22T15:04:50.061Z,1.20
2019-04-22T15:07:21.096Z,1.20
2019-04-22T15:09:52.281Z,0.90
2019-04-22T15:12:33.635Z,0.95
2019-04-22T15:14:55.388Z,0.78
2019-04-22T15:17:42.894Z,1.20
2019-04-22T15:20:27.754Z,0.80
2019-04-22T15:22:59.086Z,0.95
2019-04-22T15:25:30.567Z,1.30
2019-04-22T15:28:01.634Z,1.30
2019-04-22T15:30:33.386Z,1.30
2019-04-22T15:33:03.385Z,0.80
2019-04-22T15:35:33.597Z,0.80
2019-04-22T15:38:04.787Z,1.30
2019-04-22T15:40:36.442Z,1.10
2019-04-22T15:43:06.656Z,0.90
2019-04-22T15:45:36.861Z,1.02
2019-04-22T15:48:08.291Z,1.00
2019-04-22T15:50:38.156Z,1.17
2019-04-22T15:53:09.659Z,1.10
2019-04-22T15:55:40.919Z,1.42
2019-04-22T15:58:11.975Z,1.00
2019-04-22T16:00:55.373Z,1.50
2019-04-22T16:03:14.447Z,1.00
2019-04-22T16:05:45.897Z,1.22
2019-04-22T16:08:17.148Z,1.22
2019-04-22T16:10:48.170Z,0.82
2019-04-22T16:13:23.248Z,1.30
2019-04-22T16:15:50.082Z,1.10
2019-04-22T16:18:20.187Z,1.50
2019-04-22T16:20:50.387Z,1.57
2019-04-22T16:23:28.214Z,1.52
2019-04-22T16:26:07.294Z,1.15
2019-04-22T16:28:37.793Z,1.22
2019-04-22T16:31:09.083Z,1.27
2019-04-22T16:33:41.763Z,1.37
2019-04-22T16:36:12.984Z,1.10
2019-04-22T16:38:43.116Z,1.17
2019-04-22T16:41:13.071Z,1.07
2019-04-22T16:43:42.984Z,1.30
2019-04-22T16:46:13.856Z,0.90
2019-04-22T16:48:45.372Z,1.12
2019-04-22T16:51:16.150Z,0.80
2019-04-22T16:53:47.527Z,1.15
2019-04-22T16:56:17.544Z,1.00
2019-04-22T16:58:48.602Z,0.70
2019-04-22T17:01:43.626Z,0.90
2019-04-22T17:06:49.775Z,0.90
2019-04-22T17:09:19.856Z,0.82
2019-04-22T17:11:50.024Z,0.80
2019-04-22T17:14:29.997Z,0.80
2019-04-22T17:16:52.783Z,1.10
2019-04-22T17:19:23.615Z,0.90
2019-04-22T17:21:55.383Z,0.62
2019-04-22T17:24:25.789Z,0.80
2019-04-22T17:26:56.716Z,0.80
2019-04-22T17:29:26.669Z,0.90
2019-04-22T17:32:03.900Z,0.88
2019-04-22T17:34:29.538Z,0.70
2019-04-22T17:36:59.571Z,0.62
2019-04-22T17:39:41.996Z,0.70
2019-04-22T17:42:22.448Z,1.00
2019-04-22T17:45:19.123Z,0.80
2019-04-22T17:48:08.631Z,1.20
2019-04-22T17:50:37.891Z,0.70
2019-04-22T17:53:17.977Z,0.60
2019-04-22T17:55:54.131Z,0.85
2019-04-22T17:58:14.822Z,0.70
2019-04-22T18:00:39.840Z,0.90
2019-04-22T18:03:11.231Z,0.82
2019-04-22T18:05:34.753Z,1.17
2019-04-22T18:08:17.689Z,1.10
2019-04-22T18:10:47.383Z,1.10
2019-04-22T18:13:28.643Z,1.12
2019-04-22T18:15:54.804Z,1.00
2019-04-22T18:18:31.427Z,0.80
2019-04-22T18:20:49.974Z,1.35
2019-04-22T18:23:14.723Z,1.40
2019-04-22T18:25:59.137Z,1.17
2019-04-22T18:28:37.655Z,1.02
2019-04-22T18:31:03.203Z,1.00
2019-04-22T18:33:32.834Z,0.90
2019-04-22T18:36:03.892Z,1.60
2019-04-22T18:38:48.138Z,0.88
2019-04-22T18:41:09.832Z,1.30
2019-04-22T18:43:47.984Z,1.20
2019-04-22T18:46:19.263Z,1.20
2019-04-22T18:48:48.103Z,1.22
2019-04-22T18:51:27.678Z,1.32
2019-04-22T18:54:18.312Z,1.12
2019-04-22T18:56:51.017Z,0.75
2019-04-22T18:59:13.796Z,0.90
2019-04-22T19:01:35.532Z,0.70
2019-04-22T19:04:14.122Z,0.78
2019-04-22T19:07:17.279Z,1.42
2019-04-22T19:09:45.350Z,1.00
2019-04-22T19:12:15.195Z,0.98
2019-04-22T19:14:46.386Z,1.25
2019-04-22T19:17:21.513Z,1.20
2019-04-22T19:19:49.846Z,1.20
2019-04-22T19:22:16.266Z,1.35
2019-04-22T19:24:45.960Z,1.40
2019-04-22T19:27:16.219Z,1.50
2019-04-22T19:29:53.991Z,1.30
2019-04-22T19:32:23.013Z,1.15
2019-04-22T19:34:47.756Z,1.30
2019-04-22T19:37:24.818Z,1.27
2019-04-22T19:40:04.980Z,1.07
2019-04-22T19:42:40.835Z,1.30
2019-04-22T19:45:01.261Z,1.32
2019-04-22T19:47:38.806Z,1.32
2019-04-22T19:52:53.555Z,1.00
2019-04-22T19:55:10.963Z,1.05
2019-04-22T19:57:42.084Z,1.20
2019-04-22T20:00:18.405Z,1.17
2019-04-22T20:03:07.249Z,1.22
2019-04-22T20:05:43.589Z,1.35
2019-04-22T20:08:17.825Z,1.15
2019-04-22T20:10:44.591Z,1.27
2019-04-22T20:13:20.706Z,1.05
2019-04-22T20:15:38.735Z,1.87
2019-04-22T20:18:29.663Z,1.30
2019-04-22T20:20:52.883Z,1.40
2019-04-22T20:23:14.477Z,1.55
2019-04-22T20:25:48.084Z,1.37
2019-04-22T20:28:25.572Z,1.50
2019-04-22T20:30:56.221Z,1.25
2019-04-22T20:36:07.633Z,1.25
2019-04-22T20:38:32.636Z,1.10
2019-04-22T20:41:02.019Z,1.40
2019-04-22T20:43:43.010Z,1.17
2019-04-22T20:46:13.704Z,1.30
2019-04-22T20:48:43.889Z,1.42
2019-04-22T20:51:12.476Z,1.20
2019-04-22T20:53:46.034Z,1.55
2019-04-22T20:56:16.802Z,1.75
2019-04-22T20:58:45.232Z,1.52
2019-04-22T21:01:11.677Z,2.50
2019-04-22T21:03:42.010Z,1.42
2019-04-22T21:06:24.949Z,1.20
2019-04-22T21:08:54.406Z,1.80
2019-04-22T21:11:28.443Z,1.70
2019-04-22T21:13:55.780Z,1.37
2019-04-22T21:16:34.742Z,1.80
2019-04-22T21:19:02.774Z,1.77
2019-04-22T21:21:38.252Z,1.72
2019-04-22T21:23:57.141Z,1.90
2019-04-22T21:26:33.612Z,2.10
2019-04-22T21:29:07.097Z,1.77
2019-04-22T21:31:38.919Z,2.02
2019-04-22T21:34:14.928Z,1.67
2019-04-22T21:36:48.115Z,1.77
2019-04-22T21:39:14.724Z,1.82
2019-04-22T21:41:47.634Z,2.15
2019-04-22T21:44:21.385Z,2.15
2019-04-22T21:47:09.006Z,1.62
2019-04-22T21:49:33.333Z,2.70
2019-04-22T21:51:58.406Z,2.33
2019-04-22T21:54:34.736Z,2.05
2019-04-22T21:57:19.209Z,2.47
2019-04-22T21:59:45.116Z,2.17
2019-04-22T22:02:16.150Z,2.12
2019-04-22T22:04:44.591Z,2.75
2019-04-22T22:07:07.478Z,2.50
2019-04-22T22:09:54.258Z,2.55
2019-04-22T22:12:24.273Z,2.20
2019-04-22T22:15:03.121Z,2.70
2019-04-22T22:17:28.289Z,2.30
2019-04-22T22:20:00.285Z,2.17
2019-04-22T22:25:01.430Z,2.60
2019-04-22T22:27:37.555Z,2.87
2019-04-22T22:30:24.884Z,2.10
2019-04-22T22:32:42.308Z,2.33
2019-04-22T22:35:06.739Z,1.80
2019-04-22T22:37:28.352Z,2.60
2019-04-22T22:40:01.267Z,2.12
2019-04-22T22:42:31.281Z,2.27
2019-04-22T22:45:07.838Z,2.95
2019-04-22T22:47:44.212Z,2.55
2019-04-22T22:50:25.244Z,2.67
2019-04-22T22:52:59.297Z,3.12
2019-04-22T22:55:24.809Z,3.40
2019-04-22T22:57:58.357Z,2.62
2019-04-22T23:00:24.534Z,2.98
2019-04-22T23:03:23.287Z,3.87
2019-04-22T23:05:43.568Z,2.85
2019-04-22T23:08:07.732Z,4.22
2019-04-22T23:10:48.067Z,2.60
2019-04-22T23:13:16.811Z,4.47
2019-04-22T23:15:37.090Z,3.95
2019-04-22T23:17:54.121Z,4.20
2019-04-22T23:20:31.432Z,3.22
2019-04-22T23:25:56.690Z,3.10
2019-04-22T23:28:29.780Z,3.30
2019-04-22T23:31:14.099Z,4.30
2019-04-22T23:33:56.110Z,3.20
2019-04-22T23:36:57.564Z,4.10
2019-04-22T23:39:33.863Z,4.05
2019-04-22T23:42:06.429Z,4.22
2019-04-22T23:44:39.846Z,3.05
2019-04-22T23:47:08.418Z,3.47
2019-04-22T23:49:34.859Z,2.70
2019-04-22T23:52:28.907Z,2.47
2019-04-22T23:54:51.742Z,3.87
2019-04-22T23:57:24.097Z,3.50
2019-04-22T23:59:57.081Z,3.25
